Time;durP1;ratioP1;P1;durP2;ratioP2;P2;SDS_P1;SDS_P2;PMS_P1;PMS_P2;Temp;Humidity;BMP_temperature;BMP_pressure;BME280_temperature;BME280_humidity;BME280_pressure;Samples;Min_cycle;Max_cycle;Signal;HPM_P1;HPM_P2
2022/03/19 00:00:59;;;;;;;20.52;4.75;;;;;;;;;;4830185;29;20459;-85
2022/03/19 00:03:25;;;;;;;15.43;4.45;;;;;;;;;;4772528;29;20439;-86
2022/03/19 00:05:51;;;;;;;14.75;3.92;;;;;;;;;;4787455;29;20426;-86
2022/03/19 00:08:18;;;;;;;14.80;4.28;;;;;;;;;;4798554;29;20443;-86
2022/03/19 00:10:44;;;;;;;13.77;4.13;;;;;;;;;;4802613;29;20439;-86
2022/03/19 00:13:10;;;;;;;15.65;4.65;;;;;;;;;;4788874;29;20459;-86
2022/03/19 00:15:37;;;;;;;13.82;4.00;;;;;;;;;;4784032;29;20424;-86
2022/03/19 00:18:03;;;;;;;17.30;4.50;;;;;;;;;;4788543;29;20448;-86
2022/03/19 00:20:30;;;;;;;14.32;4.38;;;;;;;;;;4774465;29;20522;-85
2022/03/19 00:22:56;;;;;;;14.43;3.92;;;;;;;;;;4807622;29;20514;-86
2022/03/19 00:25:22;;;;;;;16.35;4.57;;;;;;;;;;4828023;29;20470;-86
2022/03/19 00:27:48;;;;;;;13.13;3.67;;;;;;;;;;4788256;29;21346;-87
2022/03/19 00:30:15;;;;;;;12.63;3.65;;;;;;;;;;4802066;29;20505;-86
2022/03/19 00:32:41;;;;;;;15.80;3.95;;;;;;;;;;4808721;29;20455;-86
2022/03/19 00:35:07;;;;;;;17.97;3.83;;;;;;;;;;4813342;29;20550;-87
2022/03/19 00:37:44;;;;;;;14.10;4.10;;;;;;;;;;4790735;29;20427;-86
2022/03/19 00:40:11;;;;;;;15.60;3.67;;;;;;;;;;4783504;29;20435;-86
2022/03/19 00:42:37;;;;;;;13.07;4.00;;;;;;;;;;4788789;29;20427;-86
2022/03/19 00:45:04;;;;;;;11.10;3.57;;;;;;;;;;4784910;29;20555;-85
2022/03/19 00:47:30;;;;;;;14.68;3.70;;;;;;;;;;4780406;29;20457;-85
2022/03/19 00:49:56;;;;;;;15.15;3.95;;;;;;;;;;4788198;29;20435;-85
2022/03/19 00:52:22;;;;;;;16.10;3.78;;;;;;;;;;4764925;29;20475;-86
2022/03/19 00:54:48;;;;;;;14.13;4.03;;;;;;;;;;4798589;29;20451;-85
2022/03/19 00:57:14;;;;;;;17.33;4.00;;;;;;;;;;4799716;29;20463;-86
2022/03/19 00:59:40;;;;;;;15.93;3.37;;;;;;;;;;4771944;29;20952;-86
2022/03/19 01:02:07;;;;;;;16.90;3.50;;;;;;;;;;4785772;29;20435;-86
2022/03/19 01:04:33;;;;;;;14.70;3.78;;;;;;;;;;4804715;29;20522;-86
2022/03/19 01:07:00;;;;;;;14.40;3.67;;;;;;;;;;4779532;29;20443;-86
2022/03/19 01:09:26;;;;;;;18.10;4.30;;;;;;;;;;4790624;29;20435;-85
2022/03/19 01:11:52;;;;;;;14.88;4.05;;;;;;;;;;4781605;29;20439;-86
2022/03/19 01:14:18;;;;;;;14.57;3.85;;;;;;;;;;4803830;29;20439;-85
2022/03/19 01:16:45;;;;;;;17.45;4.25;;;;;;;;;;4791469;29;20427;-86
2022/03/19 01:19:11;;;;;;;16.13;4.15;;;;;;;;;;4789897;29;20481;-86
2022/03/19 01:21:37;;;;;;;14.55;4.05;;;;;;;;;;4784368;29;20939;-85
2022/03/19 01:24:04;;;;;;;15.13;4.05;;;;;;;;;;4800683;29;20453;-85
2022/03/19 01:26:30;;;;;;;13.68;3.53;;;;;;;;;;4795962;29;20489;-86
2022/03/19 01:28:56;;;;;;;13.55;3.80;;;;;;;;;;4800257;29;20538;-85
2022/03/19 01:31:25;;;;;;;14.95;4.45;;;;;;;;;;4793100;29;20433;-85
2022/03/19 01:33:52;;;;;;;11.50;3.80;;;;;;;;;;4800465;29;20447;-85
2022/03/19 01:36:18;;;;;;;14.40;3.87;;;;;;;;;;4806149;29;20429;-85
2022/03/19 01:38:45;;;;;;;18.38;4.45;;;;;;;;;;4773795;29;20565;-86
2022/03/19 01:41:11;;;;;;;17.27;4.60;;;;;;;;;;4787926;29;20576;-85
2022/03/19 01:43:38;;;;;;;16.48;4.20;;;;;;;;;;4812988;29;20455;-85
2022/03/19 01:46:04;;;;;;;17.67;3.88;;;;;;;;;;4810639;29;20455;-85
2022/03/19 01:48:30;;;;;;;13.73;3.83;;;;;;;;;;4770914;29;20501;-85
2022/03/19 01:50:56;;;;;;;18.38;4.30;;;;;;;;;;4832879;29;20942;-85
2022/03/19 01:53:22;;;;;;;15.15;4.03;;;;;;;;;;4813656;29;20960;-85
2022/03/19 01:55:48;;;;;;;13.77;3.85;;;;;;;;;;4825220;29;20425;-85
2022/03/19 01:58:14;;;;;;;15.65;4.18;;;;;;;;;;4777090;29;20466;-85
2022/03/19 02:00:41;;;;;;;15.63;4.28;;;;;;;;;;4808487;29;20443;-85
2022/03/19 02:03:07;;;;;;;13.68;4.35;;;;;;;;;;4792332;29;20508;-84
2022/03/19 02:05:33;;;;;;;16.42;4.00;;;;;;;;;;4809023;29;20504;-85
2022/03/19 02:07:59;;;;;;;16.67;4.22;;;;;;;;;;4792443;29;20445;-85
2022/03/19 02:10:26;;;;;;;16.45;4.30;;;;;;;;;;4788176;29;20440;-85
2022/03/19 02:12:55;;;;;;;15.75;4.28;;;;;;;;;;4769551;29;20459;-85
2022/03/19 02:15:21;;;;;;;14.33;4.30;;;;;;;;;;4805480;29;20423;-84
2022/03/19 02:17:47;;;;;;;16.52;4.63;;;;;;;;;;4796231;29;20450;-84
2022/03/19 02:20:14;;;;;;;21.13;4.75;;;;;;;;;;4777021;29;20424;-84
2022/03/19 02:22:40;;;;;;;18.77;4.93;;;;;;;;;;4805301;29;20429;-84
2022/03/19 02:27:51;;;;;;;17.50;5.03;;;;;;;;;;4789526;29;20551;-83
2022/03/19 02:30:17;;;;;;;16.02;4.60;;;;;;;;;;4774849;29;20441;-84
2022/03/19 02:32:45;;;;;;;16.35;4.43;;;;;;;;;;4792144;29;20470;-84
2022/03/19 02:35:11;;;;;;;17.50;5.22;;;;;;;;;;4796708;29;20430;-84
2022/03/19 02:37:39;;;;;;;18.50;5.20;;;;;;;;;;4782711;29;20434;-85
2022/03/19 02:40:05;;;;;;;17.65;4.75;;;;;;;;;;4781765;29;20445;-85
2022/03/19 02:42:31;;;;;;;17.67;5.20;;;;;;;;;;4794117;29;20553;-86
2022/03/19 02:44:57;;;;;;;16.95;4.90;;;;;;;;;;4819967;29;20462;-85
2022/03/19 02:47:23;;;;;;;17.42;5.13;;;;;;;;;;4800725;29;20436;-85
2022/03/19 02:49:50;;;;;;;21.60;5.13;;;;;;;;;;4798251;29;20421;-85
2022/03/19 02:52:16;;;;;;;16.50;4.72;;;;;;;;;;4778273;29;20454;-85
2022/03/19 02:54:42;;;;;;;16.40;5.22;;;;;;;;;;4788352;29;20750;-85
2022/03/19 02:57:08;;;;;;;22.73;5.43;;;;;;;;;;4804154;29;20439;-86
2022/03/19 02:59:35;;;;;;;20.63;5.38;;;;;;;;;;4774416;29;20447;-85
2022/03/19 03:02:02;;;;;;;19.80;4.90;;;;;;;;;;4760894;29;20423;-85
2022/03/19 03:04:29;;;;;;;22.40;5.20;;;;;;;;;;4786861;29;20785;-85
2022/03/19 03:06:57;;;;;;;15.82;4.70;;;;;;;;;;4788824;29;20468;-85
2022/03/19 03:09:25;;;;;;;16.33;5.30;;;;;;;;;;4792880;29;20990;-85
2022/03/19 03:11:51;;;;;;;15.10;4.80;;;;;;;;;;4802742;29;20441;-85
2022/03/19 03:14:20;;;;;;;20.20;5.25;;;;;;;;;;4791429;29;20444;-86
2022/03/19 03:16:47;;;;;;;17.10;5.28;;;;;;;;;;4775919;29;20421;-84
2022/03/19 03:19:14;;;;;;;19.50;5.60;;;;;;;;;;4799127;29;20436;-85
2022/03/19 03:21:40;;;;;;;22.60;6.13;;;;;;;;;;4794756;29;20434;-86
2022/03/19 03:24:07;;;;;;;18.55;5.53;;;;;;;;;;4792542;29;20484;-86
2022/03/19 03:26:33;;;;;;;17.67;5.72;;;;;;;;;;4813211;29;21006;-85
2022/03/19 03:28:59;;;;;;;18.20;5.38;;;;;;;;;;4818400;29;20456;-86
2022/03/19 03:31:28;;;;;;;21.23;5.55;;;;;;;;;;4799330;29;20435;-86
2022/03/19 03:33:55;;;;;;;18.65;5.32;;;;;;;;;;4788964;29;20451;-86
2022/03/19 03:36:22;;;;;;;20.35;6.43;;;;;;;;;;4757574;29;20456;-86
2022/03/19 03:38:48;;;;;;;18.25;5.50;;;;;;;;;;4788064;29;20425;-86
2022/03/19 03:41:14;;;;;;;18.13;5.93;;;;;;;;;;4756191;30;20498;-86
2022/03/19 03:43:40;;;;;;;18.42;5.82;;;;;;;;;;4800995;29;20973;-86
2022/03/19 03:46:06;;;;;;;17.73;5.40;;;;;;;;;;4770875;30;20452;-86
2022/03/19 03:48:36;;;;;;;19.10;6.10;;;;;;;;;;4777919;29;20459;-85
2022/03/19 03:51:04;;;;;;;20.70;6.70;;;;;;;;;;4801399;29;20439;-86
2022/03/19 03:53:30;;;;;;;16.17;5.90;;;;;;;;;;4786130;29;20448;-86
2022/03/19 03:55:57;;;;;;;18.08;5.82;;;;;;;;;;4757693;29;20444;-86
2022/03/19 03:58:24;;;;;;;17.35;6.50;;;;;;;;;;4774391;29;20447;-86
2022/03/19 04:00:53;;;;;;;19.95;6.45;;;;;;;;;;4825570;29;20430;-86
2022/03/19 04:03:20;;;;;;;23.48;6.75;;;;;;;;;;4787472;29;20446;-86
2022/03/19 04:05:46;;;;;;;19.45;6.45;;;;;;;;;;4759757;29;20487;-85
2022/03/19 04:08:12;;;;;;;20.42;7.18;;;;;;;;;;4775493;29;20423;-85
2022/03/19 04:10:38;;;;;;;18.98;6.88;;;;;;;;;;4772508;29;20530;-85
2022/03/19 04:13:04;;;;;;;20.25;6.22;;;;;;;;;;4818339;29;20930;-86
2022/03/19 04:15:31;;;;;;;18.55;6.38;;;;;;;;;;4779628;29;20426;-86
2022/03/19 04:17:57;;;;;;;21.53;6.73;;;;;;;;;;4812045;29;20987;-86
2022/03/19 04:20:24;;;;;;;20.77;6.75;;;;;;;;;;4761088;29;20431;-85
2022/03/19 04:22:51;;;;;;;20.27;6.70;;;;;;;;;;4773820;29;20434;-86
2022/03/19 04:25:18;;;;;;;22.63;7.27;;;;;;;;;;4802955;29;20447;-86
2022/03/19 04:27:49;;;;;;;20.25;6.60;;;;;;;;;;4798253;29;20764;-85
2022/03/19 04:30:16;;;;;;;19.75;6.57;;;;;;;;;;4773448;29;20583;-85
2022/03/19 04:32:47;;;;;;;18.73;7.05;;;;;;;;;;4777949;29;20447;-85
2022/03/19 04:38:03;;;;;;;21.02;8.20;;;;;;;;;;4819075;29;20427;-85
2022/03/19 04:40:29;;;;;;;24.25;7.80;;;;;;;;;;4806330;29;20514;-84
2022/03/19 04:42:55;;;;;;;21.73;7.53;;;;;;;;;;4823685;29;20516;-84
2022/03/19 04:45:21;;;;;;;19.13;7.38;;;;;;;;;;4788617;29;20443;-85
2022/03/19 04:47:48;;;;;;;27.23;8.30;;;;;;;;;;4776966;29;21077;-85
2022/03/19 04:50:14;;;;;;;23.92;7.40;;;;;;;;;;4790484;29;20518;-86
2022/03/19 04:52:40;;;;;;;23.00;8.00;;;;;;;;;;4832281;29;20467;-85
2022/03/19 04:55:07;;;;;;;21.25;7.90;;;;;;;;;;4795317;29;20930;-86
2022/03/19 04:57:33;;;;;;;17.02;7.47;;;;;;;;;;4818065;29;20434;-86
2022/03/19 04:59:59;;;;;;;24.33;8.23;;;;;;;;;;4789352;29;20465;-86
2022/03/19 05:02:25;;;;;;;23.13;8.13;;;;;;;;;;4808129;29;20427;-86
2022/03/19 05:04:52;;;;;;;21.70;8.13;;;;;;;;;;4814554;29;20423;-86
2022/03/19 05:07:22;;;;;;;23.30;8.18;;;;;;;;;;4766011;30;20448;-86
2022/03/19 05:12:38;;;;;;;25.52;8.30;;;;;;;;;;4805063;29;20947;-84
2022/03/19 05:15:05;;;;;;;22.67;8.10;;;;;;;;;;4796672;29;20492;-84
2022/03/19 05:17:31;;;;;;;21.87;8.33;;;;;;;;;;4772574;29;20976;-84
2022/03/19 05:19:57;;;;;;;21.70;9.30;;;;;;;;;;4770753;29;20462;-85
2022/03/19 05:22:23;;;;;;;22.98;10.30;;;;;;;;;;4815523;29;20447;-83
2022/03/19 05:24:50;;;;;;;30.05;9.38;;;;;;;;;;4773097;29;20944;-85
2022/03/19 05:27:17;;;;;;;25.63;10.57;;;;;;;;;;4772593;29;21134;-85
2022/03/19 05:29:43;;;;;;;24.98;10.95;;;;;;;;;;4787099;29;20522;-84
2022/03/19 05:32:10;;;;;;;62.47;17.33;;;;;;;;;;4816173;29;20430;-83
2022/03/19 05:34:36;;;;;;;25.48;10.80;;;;;;;;;;4803889;29;20431;-84
2022/03/19 05:37:03;;;;;;;29.15;11.32;;;;;;;;;;4787118;29;20443;-84
2022/03/19 05:39:30;;;;;;;26.47;10.30;;;;;;;;;;4767294;30;20516;-84
2022/03/19 05:41:57;;;;;;;26.20;11.10;;;;;;;;;;4800671;29;20439;-84
2022/03/19 05:44:23;;;;;;;22.35;9.75;;;;;;;;;;4773259;29;21024;-85
2022/03/19 05:46:49;;;;;;;22.90;10.45;;;;;;;;;;4788433;29;20475;-85
2022/03/19 05:49:16;;;;;;;25.27;9.80;;;;;;;;;;4815700;29;20489;-84
2022/03/19 05:51:42;;;;;;;20.25;8.70;;;;;;;;;;4801711;29;20443;-85
2022/03/19 05:54:09;;;;;;;20.15;8.82;;;;;;;;;;4785148;29;20437;-84
2022/03/19 05:56:36;;;;;;;18.70;8.88;;;;;;;;;;4797167;29;20433;-85
2022/03/19 05:59:03;;;;;;;19.95;9.63;;;;;;;;;;4817814;29;20443;-84
2022/03/19 06:01:29;;;;;;;22.05;9.07;;;;;;;;;;4786306;29;20539;-85
2022/03/19 06:03:55;;;;;;;20.63;8.55;;;;;;;;;;4816493;29;20423;-85
2022/03/19 06:06:22;;;;;;;18.00;8.52;;;;;;;;;;4786662;29;20421;-84
2022/03/19 06:08:48;;;;;;;22.57;8.83;;;;;;;;;;4761233;29;20455;-82
2022/03/19 06:11:14;;;;;;;21.38;9.10;;;;;;;;;;4800305;29;20792;-82
2022/03/19 06:13:40;;;;;;;19.27;9.50;;;;;;;;;;4761613;29;20720;-82
2022/03/19 06:16:06;;;;;;;18.83;9.57;;;;;;;;;;4801060;29;20791;-82
2022/03/19 06:18:32;;;;;;;24.25;9.77;;;;;;;;;;4810285;29;20446;-82
2022/03/19 06:20:58;;;;;;;21.23;9.15;;;;;;;;;;4775166;29;20521;-83
2022/03/19 06:23:24;;;;;;;22.27;8.55;;;;;;;;;;4783878;29;20502;-81
2022/03/19 06:25:51;;;;;;;19.70;8.70;;;;;;;;;;4791631;29;20851;-82
2022/03/19 06:28:17;;;;;;;17.42;8.15;;;;;;;;;;4771073;29;20439;-82
2022/03/19 06:30:43;;;;;;;21.83;8.30;;;;;;;;;;4786240;29;20438;-82
2022/03/19 06:33:11;;;;;;;19.90;8.60;;;;;;;;;;4791356;29;20534;-81
2022/03/19 06:38:22;;;;;;;23.10;8.38;;;;;;;;;;4797174;29;20451;-81
2022/03/19 06:40:49;;;;;;;17.52;7.75;;;;;;;;;;4773073;29;20514;-83
2022/03/19 06:43:15;;;;;;;21.63;8.25;;;;;;;;;;4806070;29;20919;-83
2022/03/19 06:45:41;;;;;;;19.70;8.40;;;;;;;;;;4804352;29;20440;-82
2022/03/19 06:48:07;;;;;;;18.35;8.15;;;;;;;;;;4786807;29;20442;-84
2022/03/19 06:50:33;;;;;;;19.35;8.02;;;;;;;;;;4786736;29;20450;-83
2022/03/19 06:52:59;;;;;;;19.40;8.35;;;;;;;;;;4788371;29;20447;-83
2022/03/19 06:55:25;;;;;;;20.63;8.98;;;;;;;;;;4812110;29;20855;-83
2022/03/19 06:57:51;;;;;;;21.20;8.87;;;;;;;;;;4783296;29;20542;-81
2022/03/19 07:00:17;;;;;;;19.83;8.80;;;;;;;;;;4770963;30;20445;-81
2022/03/19 07:02:53;;;;;;;19.80;8.68;;;;;;;;;;4754489;29;20460;-82
2022/03/19 07:05:23;;;;;;;17.70;8.50;;;;;;;;;;4754124;29;20432;-82
2022/03/19 07:07:50;;;;;;;20.60;8.50;;;;;;;;;;4768956;30;20487;-82
2022/03/19 07:10:18;;;;;;;18.30;8.43;;;;;;;;;;4737622;29;20450;-83
2022/03/19 07:12:47;;;;;;;21.20;7.88;;;;;;;;;;4783815;29;20433;-83
2022/03/19 07:15:14;;;;;;;17.13;7.73;;;;;;;;;;4771066;29;20943;-82
2022/03/19 07:17:40;;;;;;;17.90;7.57;;;;;;;;;;4784514;29;20522;-82
2022/03/19 07:20:07;;;;;;;19.10;7.90;;;;;;;;;;4801464;29;20434;-81
2022/03/19 07:22:52;;;;;;;19.50;8.15;;;;;;;;;;4784460;29;20430;-86
2022/03/19 07:25:26;;;;;;;18.83;8.43;;;;;;;;;;4770774;29;20505;-85
2022/03/19 07:27:54;;;;;;;16.10;7.40;;;;;;;;;;4779679;29;20737;-87
2022/03/19 07:30:20;;;;;;;20.45;7.65;;;;;;;;;;4783279;29;20445;-86
2022/03/19 07:32:46;;;;;;;19.50;7.55;;;;;;;;;;4811989;29;20491;-87
2022/03/19 07:35:13;;;;;;;16.38;6.43;;;;;;;;;;4788146;29;20424;-88
2022/03/19 07:37:41;;;;;;;14.13;6.60;;;;;;;;;;4768315;29;20448;-88
2022/03/19 07:40:15;;;;;;;16.92;6.90;;;;;;;;;;4745465;30;20433;-87
2022/03/19 07:42:41;;;;;;;17.67;7.25;;;;;;;;;;4754698;30;20470;-88
2022/03/19 07:45:10;;;;;;;16.92;6.90;;;;;;;;;;4770694;30;20435;-87
2022/03/19 07:47:36;;;;;;;16.37;6.93;;;;;;;;;;4756706;29;20444;-87
2022/03/19 07:50:03;;;;;;;15.82;6.55;;;;;;;;;;4760249;29;20457;-88
2022/03/19 07:52:33;;;;;;;15.13;6.80;;;;;;;;;;4757191;29;20558;-88
2022/03/19 07:54:59;;;;;;;16.63;6.63;;;;;;;;;;4784467;29;20438;-87
2022/03/19 07:57:25;;;;;;;19.33;7.68;;;;;;;;;;4805299;29;20435;-87
2022/03/19 07:59:51;;;;;;;17.25;7.05;;;;;;;;;;4796188;29;20479;-85
2022/03/19 08:02:18;;;;;;;18.35;6.97;;;;;;;;;;4804327;29;20462;-86
2022/03/19 08:04:44;;;;;;;20.10;6.95;;;;;;;;;;4794051;29;21176;-87
2022/03/19 08:07:10;;;;;;;17.10;6.50;;;;;;;;;;4804529;29;20443;-87
2022/03/19 08:09:36;;;;;;;17.67;6.22;;;;;;;;;;4760595;29;20443;-87
2022/03/19 08:12:03;;;;;;;14.38;6.13;;;;;;;;;;4775608;29;20857;-85
2022/03/19 08:14:32;;;;;;;14.48;6.13;;;;;;;;;;4789485;29;20470;-87
2022/03/19 08:16:58;;;;;;;16.35;6.55;;;;;;;;;;4773680;29;20936;-83
2022/03/19 08:19:25;;;;;;;16.27;6.40;;;;;;;;;;4773847;29;20444;-82
2022/03/19 08:21:52;;;;;;;18.00;6.90;;;;;;;;;;4803941;29;20432;-83
2022/03/19 08:24:19;;;;;;;16.30;6.47;;;;;;;;;;4802725;29;20471;-83
2022/03/19 08:26:46;;;;;;;16.77;6.13;;;;;;;;;;4772932;29;20450;-84
2022/03/19 08:29:13;;;;;;;15.60;6.23;;;;;;;;;;4811629;29;20474;-84
2022/03/19 08:31:39;;;;;;;14.40;5.25;;;;;;;;;;4796907;29;20970;-85
2022/03/19 08:34:06;;;;;;;16.45;5.65;;;;;;;;;;4759335;29;20514;-86
2022/03/19 08:36:33;;;;;;;12.98;5.15;;;;;;;;;;4786929;29;20498;-86
2022/03/19 08:41:44;;;;;;;15.73;5.57;;;;;;;;;;4808947;29;20919;-85
2022/03/19 08:44:10;;;;;;;12.63;4.78;;;;;;;;;;4756516;29;20508;-85
2022/03/19 08:46:39;;;;;;;12.75;4.40;;;;;;;;;;4775294;29;20861;-85
2022/03/19 08:49:05;;;;;;;15.02;4.47;;;;;;;;;;4808205;29;20951;-86
2022/03/19 08:51:40;;;;;;;12.13;4.50;;;;;;;;;;4768383;30;20481;-86
2022/03/19 08:54:09;;;;;;;16.08;4.45;;;;;;;;;;4816222;29;20451;-87
2022/03/19 08:56:36;;;;;;;10.40;4.07;;;;;;;;;;4815109;29;20503;-86
2022/03/19 08:59:03;;;;;;;13.43;4.80;;;;;;;;;;4816942;29;20453;-85
2022/03/19 09:01:33;;;;;;;10.20;3.90;;;;;;;;;;4811382;29;20570;-87
2022/03/19 09:04:02;;;;;;;13.88;4.20;;;;;;;;;;4789630;29;20433;-86
2022/03/19 09:06:28;;;;;;;11.65;4.07;;;;;;;;;;4772496;30;20452;-84
2022/03/19 09:08:59;;;;;;;9.60;3.80;;;;;;;;;;4801141;29;20471;-85
2022/03/19 09:11:33;;;;;;;13.23;3.65;;;;;;;;;;4771502;29;20441;-86
2022/03/19 09:14:14;;;;;;;;;;;;;;;;;;;;;
2022/03/19 09:16:40;;;;;;;13.17;3.97;;;;;;;;;;4813029;29;20437;-82
2022/03/19 09:19:06;;;;;;;9.85;3.55;;;;;;;;;;4796040;29;20441;-81
2022/03/19 09:21:33;;;;;;;11.33;3.50;;;;;;;;;;4781002;29;20883;-81
2022/03/19 09:23:59;;;;;;;12.13;3.85;;;;;;;;;;4805187;29;20926;-83
2022/03/19 09:26:26;;;;;;;12.67;3.70;;;;;;;;;;4767025;30;20453;-82
2022/03/19 09:28:52;;;;;;;10.43;3.37;;;;;;;;;;4785742;29;20541;-80
2022/03/19 09:31:19;;;;;;;11.55;3.42;;;;;;;;;;4795279;29;20472;-79
2022/03/19 09:33:45;;;;;;;10.07;2.92;;;;;;;;;;4798108;29;20452;-82
2022/03/19 09:36:12;;;;;;;9.75;3.40;;;;;;;;;;4816402;29;20429;-77
2022/03/19 09:38:40;;;;;;;9.00;3.05;;;;;;;;;;4808927;29;20502;-81
2022/03/19 09:41:07;;;;;;;11.50;3.60;;;;;;;;;;4769848;30;20436;-83
2022/03/19 09:43:33;;;;;;;9.40;3.40;;;;;;;;;;4802893;29;20444;-83
2022/03/19 09:45:59;;;;;;;10.95;3.22;;;;;;;;;;4816178;29;20467;-83
2022/03/19 09:48:26;;;;;;;8.82;2.85;;;;;;;;;;4787001;29;21079;-83
2022/03/19 09:50:54;;;;;;;10.32;3.30;;;;;;;;;;4783392;29;20449;-83
2022/03/19 09:53:24;;;;;;;11.93;3.03;;;;;;;;;;4782783;29;21024;-82
2022/03/19 09:55:52;;;;;;;10.15;3.08;;;;;;;;;;4769731;29;20452;-83
2022/03/19 09:58:19;;;;;;;13.03;3.40;;;;;;;;;;4786326;29;20464;-83
2022/03/19 10:00:46;;;;;;;11.95;3.47;;;;;;;;;;4795654;29;20778;-83
2022/03/19 10:03:13;;;;;;;10.90;3.38;;;;;;;;;;4802758;29;20461;-83
2022/03/19 10:08:37;;;;;;;8.90;3.00;;;;;;;;;;4783603;29;20427;-82
2022/03/19 10:11:06;;;;;;;8.23;2.70;;;;;;;;;;4784145;29;20428;-81
2022/03/19 10:13:32;;;;;;;11.43;3.30;;;;;;;;;;4807959;29;20813;-83
2022/03/19 10:15:58;;;;;;;8.38;3.00;;;;;;;;;;4770376;29;20440;-83
2022/03/19 10:18:32;;;;;;;11.95;3.10;;;;;;;;;;4764553;30;20938;-83
2022/03/19 10:21:02;;;;;;;8.02;2.80;;;11.50;99.90;;;;;;4805432;29;20439;-84
2022/03/19 10:23:33;;;;;;;10.98;2.90;;;;;;;;;;4810271;29;20538;-83
2022/03/19 10:25:59;;;;;;;8.90;3.00;;;;;;;;;;4814509;29;20811;-83
2022/03/19 10:28:32;;;;;;;10.38;3.40;;;;;;;;;;4795859;29;20453;-84
2022/03/19 10:30:59;;;;;;;9.90;3.30;;;;;;;;;;4757551;29;20842;-83
2022/03/19 10:33:27;;;;;;;10.63;3.57;;;;;;;;;;4782720;29;20443;-83
2022/03/19 10:36:05;;;;;;;10.07;3.55;;;;;;;;;;4821506;29;20450;-83
2022/03/19 10:38:39;;;;;;;11.00;3.80;;;;;;;;;;4800419;29;20450;-82
2022/03/19 10:41:06;;;;;;;11.35;4.10;;;;;;;;;;4803461;29;20519;-84
2022/03/19 10:43:33;;;;;;;10.52;3.22;;;;;;;;;;4784980;29;20992;-82
2022/03/19 10:46:00;;;;;;;9.23;3.25;;;;;;;;;;4785965;29;20447;-81
2022/03/19 10:48:27;;;;;;;9.27;3.10;;;;;;;;;;4829138;29;20517;-82
2022/03/19 10:50:54;;;;;;;10.15;3.08;;;;;;;;;;4803536;29;20439;-81
2022/03/19 10:53:20;;;;;;;8.77;3.20;;;;;;;;;;4818675;29;20482;-81
2022/03/19 10:55:47;;;;;;;9.52;3.13;;;;;;;;;;4800628;29;20431;-81
2022/03/19 10:58:13;;;;;;;11.30;3.17;;;;;;;;;;4818056;29;20455;-81
2022/03/19 11:00:39;;;;;;;8.07;3.08;;;;;;;;;;4789503;29;20484;-81
2022/03/19 11:03:12;;;;;;;11.15;3.20;;;;;;;;;;4820729;29;20427;-80
2022/03/19 11:05:39;;;;;;;7.43;2.50;;;;;;;;;;4791388;29;20451;-80
2022/03/19 11:08:08;;;;;;;6.40;2.42;;;;;;;;;;4805497;29;20445;-81
2022/03/19 11:10:38;;;;;;;8.43;2.70;;;;;;;;;;4791022;29;20442;-81
2022/03/19 11:13:05;;;;;;;10.32;2.80;;;;;;;;;;4787944;29;20923;-81
2022/03/19 11:15:33;;;;;;;9.07;2.92;;;;;;;;;;4802359;29;20438;-81
2022/03/19 11:18:03;;;;;;;7.35;2.88;;;13.20;99.90;;;;;;4801812;29;20978;-81
2022/03/19 11:20:30;;;;;;;8.55;2.90;;;;;;;;;;4788759;29;20442;-82
2022/03/19 11:22:58;;;;;;;7.18;2.75;;;;;;;;;;4805770;29;20443;-81
2022/03/19 11:25:31;;;;;;;7.60;2.75;;;;;;;;;;4821978;29;20520;-82
2022/03/19 11:28:06;;;;;;;6.35;2.60;;;;;;;;;;4785941;29;20456;-84
2022/03/19 11:30:37;;;;;;;7.63;2.83;;;13.10;99.90;;;;;;4816853;29;20443;-82
2022/03/19 11:33:05;;;;;;;7.60;2.58;;;;;;;;;;4818415;29;20964;-82
2022/03/19 11:35:34;;;;;;;6.15;2.38;;;;;;;;;;4810668;29;20463;-82
2022/03/19 11:38:01;;;;;;;6.28;2.33;;;;;;;;;;4805960;29;20523;-83
2022/03/19 11:40:29;;;;;;;5.80;2.10;;;;;;;;;;4789683;29;20423;-82
2022/03/19 11:42:55;;;;;;;6.75;1.95;;;;;;;;;;4811746;29;20525;-80
2022/03/19 11:45:22;;;;;;;6.25;1.90;;;;;;;;;;4793888;29;20451;-81
2022/03/19 11:47:48;;;;;;;4.17;1.70;;;;;;;;;;4806310;29;20935;-82
2022/03/19 11:50:19;;;;;;;6.88;2.10;;;;;;;;;;4803540;29;20470;-82
2022/03/19 11:52:54;;;;;;;5.90;2.00;;;;;;;;;;4789805;29;20979;-81
2022/03/19 11:55:23;;;;;;;6.65;2.30;;;;;;;;;;4774340;29;20922;-81
2022/03/19 11:57:55;;;;;;;6.70;2.60;;;;;;;;;;4772364;29;20468;-81
2022/03/19 12:00:29;;;;;;;7.05;2.30;;;;;;;;;;4789375;29;20436;-81
2022/03/19 12:03:06;;;;;;;7.72;2.80;;;;;;;;;;4770845;29;20460;-82
2022/03/19 12:05:36;;;;;;;7.03;2.80;;;;;;;;;;4795042;29;20427;-82
2022/03/19 12:08:06;;;;;;;8.57;2.60;;;;;;;;;;4804358;29;20438;-82
2022/03/19 12:10:40;;;;;;;7.85;2.65;;;;;;;;;;4809137;29;20936;-82
2022/03/19 12:13:37;;;;;;;6.93;2.75;;;;;;;;;;4800704;29;20495;-82
2022/03/19 12:16:04;;;;;;;6.40;2.40;;;;;;;;;;4801835;29;20518;-82
2022/03/19 12:18:41;;;;;;;6.83;2.60;;;;;;;;;;4802102;29;20789;-82
2022/03/19 12:21:10;;;;;;;9.53;2.57;;;;;;;;;;4817550;29;20464;-82
2022/03/19 12:23:40;;;;;;;8.07;2.50;;;;;;;;;;4775328;29;20494;-82
2022/03/19 12:26:08;;;;;;;7.10;2.28;;;;;;;;;;4796417;29;20441;-82
2022/03/19 12:28:35;;;;;;;6.82;2.25;;;;;;;;;;4792233;29;20506;-83
2022/03/19 12:31:08;;;;;;;5.93;2.42;;;;;;;;;;4806535;29;20427;-83
2022/03/19 12:33:35;;;;;;;7.25;2.42;;;;;;;;;;4795461;29;20447;-83
2022/03/19 12:36:12;;;;;;;5.55;2.35;;;;;;;;;;4785212;29;20435;-82
2022/03/19 12:38:38;;;;;;;5.45;1.90;;;;;;;;;;4804704;29;20985;-81
2022/03/19 12:43:50;;;;;;;5.83;2.13;;;;;;;;;;4813209;29;20528;-80
2022/03/19 12:46:27;;;;;;;4.65;1.88;;;;;;;;;;4787025;29;20478;-82
2022/03/19 12:49:05;;;;;;;6.07;1.90;;;;;;;;;;4818904;29;20435;-82
2022/03/19 12:51:32;;;;;;;6.05;2.13;;;;;;;;;;4817272;29;20462;-82
2022/03/19 12:53:59;;;;;;;5.72;1.77;;;;;;;;;;4817837;29;20511;-81
2022/03/19 12:56:28;;;;;;;5.10;2.20;;;14.10;99.30;;;;;;4800843;29;20500;-80
2022/03/19 12:58:55;;;;;;;5.60;1.98;;;;;;;;;;4816178;29;20446;-82
2022/03/19 13:01:26;;;;;;;5.65;1.85;;;;;;;;;;4817285;29;20478;-83
2022/03/19 13:04:01;;;;;;;4.15;2.03;;;;;;;;;;4788960;29;20411;-83
2022/03/19 13:06:29;;;;;;;5.30;2.00;;;;;;;;;;4785715;29;20451;-83
2022/03/19 13:08:55;;;;;;;9.57;2.00;;;;;;;;;;4793181;29;20439;-84
2022/03/19 13:11:21;;;;;;;5.88;1.98;;;;;;;;;;4787364;29;20421;-83
2022/03/19 13:13:48;;;;;;;4.40;1.90;;;;;;;;;;4803490;29;20443;-84
2022/03/19 13:16:30;;;;;;;5.50;2.15;;;;;;;;;;4791077;29;20432;-81
2022/03/19 13:19:00;;;;;;;5.65;2.05;;;;;;;;;;4790085;29;20439;-82
2022/03/19 13:21:27;;;;;;;5.45;2.00;;;;;;;;;;4759528;29;20439;-81
2022/03/19 13:23:54;;;;;;;5.82;2.20;;;;;;;;;;4777573;29;20495;-82
2022/03/19 13:26:21;;;;;;;7.47;2.10;;;;;;;;;;4787067;29;20443;-82
2022/03/19 13:29:04;;;;;;;5.25;2.17;;;;;;;;;;4799488;29;20549;-83
2022/03/19 13:31:34;;;;;;;5.90;2.33;;;;;;;;;;4792075;29;20895;-83
2022/03/19 13:34:01;;;;;;;7.10;2.45;;;;;;;;;;4797769;29;20444;-82
2022/03/19 13:36:28;;;;;;;7.30;2.33;;;;;;;;;;4795958;29;20477;-83
2022/03/19 13:38:55;;;;;;;7.47;2.35;;;;;;;;;;4800756;29;20437;-83
2022/03/19 13:41:22;;;;;;;5.53;2.40;;;;;;;;;;4786820;29;20793;-84
2022/03/19 13:43:49;;;;;;;6.20;2.30;;;;;;;;;;4801377;29;20423;-83
2022/03/19 13:46:16;;;;;;;7.18;2.40;;;;;;;;;;4786729;29;20451;-82
2022/03/19 13:48:42;;;;;;;7.13;2.50;;;;;;;;;;4796020;29;20441;-83
2022/03/19 13:51:08;;;;;;;6.10;2.10;;;;;;;;;;4806371;29;20462;-84
2022/03/19 13:53:42;;;;;;;4.90;2.10;;;;;;;;;;4790093;29;20451;-82
2022/03/19 13:56:10;;;;;;;6.07;2.33;;;;;;;;;;4806440;29;20789;-81
2022/03/19 13:58:36;;;;;;;6.35;2.40;;;;;;;;;;4800990;29;20446;-81
2022/03/19 14:01:13;;;;;;;7.40;2.20;;;;;;;;;;4779292;29;20846;-81
2022/03/19 14:03:40;;;;;;;7.25;2.40;;;;;;;;;;4769137;30;20449;-83
2022/03/19 14:06:10;;;;;;;7.78;2.47;;;;;;;;;;4776176;29;20456;-83
2022/03/19 14:08:37;;;;;;;6.32;2.17;;;;;;;;;;4792682;29;20508;-83
2022/03/19 14:11:10;;;;;;;5.70;2.38;;;;;;;;;;4802690;29;20497;-83
2022/03/19 14:13:38;;;;;;;8.98;2.88;;;;;;;;;;4781452;30;20445;-83
2022/03/19 14:16:09;;;;;;;7.88;2.60;;;;;;;;;;4769861;30;20952;-82
2022/03/19 14:18:36;;;;;;;7.15;2.72;;;;;;;;;;4783932;29;20441;-82
2022/03/19 14:21:05;;;;;;;8.80;2.60;;;;;;;;;;4777231;29;20439;-83
2022/03/19 14:23:32;;;;;;;8.65;2.67;;;;;;;;;;4781850;29;20798;-83
2022/03/19 14:25:59;;;;;;;9.13;2.80;;;;;;;;;;4772720;29;20928;-85
2022/03/19 14:28:28;;;;;;;7.07;2.80;;;;;;;;;;4789281;29;20587;-84
2022/03/19 14:30:55;;;;;;;7.32;2.88;;;;;;;;;;4781696;30;20497;-83
2022/03/19 14:33:25;;;;;;;8.52;2.70;;;;;;;;;;4770829;30;20980;-82
2022/03/19 14:35:52;;;;;;;7.60;2.93;;;;;;;;;;4787558;29;20823;-82
2022/03/19 14:38:20;;;;;;;7.95;3.00;;;;;;;;;;4794945;29;20554;-82
2022/03/19 14:40:47;;;;;;;11.48;2.50;;;;;;;;;;4786182;29;20792;-84
2022/03/19 14:43:15;;;;;;;7.00;2.40;;;;;;;;;;4790663;29;20443;-84
2022/03/19 14:45:44;;;;;;;9.02;2.92;;;;;;;;;;4769087;30;20969;-84
2022/03/19 14:48:10;;;;;;;6.82;2.30;;;;;;;;;;4776052;29;20439;-83
2022/03/19 14:50:36;;;;;;;5.68;2.00;;;;;;;;;;4775129;30;20440;-84
2022/03/19 14:53:03;;;;;;;6.28;2.42;;;;;;;;;;4754508;29;20977;-83
2022/03/19 14:55:29;;;;;;;6.32;2.35;;;;;;;;;;4773444;30;20794;-83